createdAt,value
2022-10-05T00:01:28.284Z,1.20
2022-10-05T00:03:54.894Z,1.53
2022-10-05T00:06:21.389Z,1.40
2022-10-05T00:08:47.936Z,1.50
2022-10-05T00:11:14.456Z,1.40
2022-10-05T00:13:41.014Z,1.07
2022-10-05T00:16:07.533Z,1.10
2022-10-05T00:18:34.083Z,1.00
2022-10-05T00:21:00.739Z,1.20
2022-10-05T00:23:27.255Z,1.50
2022-10-05T00:25:53.738Z,1.60
2022-10-05T00:28:20.289Z,1.93
2022-10-05T00:30:46.830Z,1.57
2022-10-05T00:33:16.334Z,1.70
2022-10-05T00:35:42.838Z,1.20
2022-10-05T00:38:09.324Z,1.30
2022-10-05T00:40:35.834Z,1.30
2022-10-05T00:43:02.324Z,1.50
2022-10-05T00:45:28.898Z,1.30
2022-10-05T00:47:55.461Z,1.30
2022-10-05T00:50:21.945Z,1.40
2022-10-05T00:52:48.445Z,1.30
2022-10-05T00:55:14.986Z,1.40
2022-10-05T00:57:41.512Z,1.20
2022-10-05T01:00:08.026Z,1.30
2022-10-05T01:02:36.880Z,1.10
2022-10-05T01:05:03.742Z,1.30
2022-10-05T01:07:30.345Z,1.30
2022-10-05T01:09:56.835Z,1.40
2022-10-05T01:12:23.337Z,1.53
2022-10-05T01:14:49.868Z,1.70
2022-10-05T01:17:16.373Z,1.90
2022-10-05T01:19:42.926Z,1.47
2022-10-05T01:22:09.450Z,1.33
2022-10-05T01:24:35.966Z,1.20
2022-10-05T01:27:02.498Z,1.67
2022-10-05T01:29:29.039Z,1.53
2022-10-05T01:31:55.621Z,1.33
2022-10-05T01:34:22.197Z,1.20
2022-10-05T01:36:49.103Z,1.23
2022-10-05T01:39:15.894Z,1.00
2022-10-05T01:41:42.504Z,1.83
2022-10-05T01:44:09.058Z,1.40
2022-10-05T01:46:35.532Z,0.90
2022-10-05T01:49:02.110Z,1.30
2022-10-05T01:51:28.628Z,1.30
2022-10-05T01:53:55.156Z,1.40
2022-10-05T01:56:21.713Z,1.60
2022-10-05T01:58:48.227Z,1.70
2022-10-05T02:01:14.800Z,1.43
2022-10-05T02:03:41.409Z,1.23
2022-10-05T02:06:07.881Z,1.53
2022-10-05T02:08:34.415Z,1.00
2022-10-05T02:11:00.927Z,1.00
2022-10-05T02:13:27.419Z,1.10
2022-10-05T02:15:53.981Z,1.13
2022-10-05T02:18:20.562Z,0.90
2022-10-05T02:20:47.021Z,1.00
2022-10-05T02:23:13.505Z,1.20
2022-10-05T02:25:40.004Z,0.90
2022-10-05T02:28:06.592Z,1.30
2022-10-05T02:30:33.168Z,0.90
2022-10-05T02:32:59.662Z,0.80
2022-10-05T02:35:26.174Z,1.20
2022-10-05T02:37:52.749Z,1.33
2022-10-05T02:40:19.222Z,1.40
2022-10-05T02:42:45.735Z,1.53
2022-10-05T02:45:12.264Z,1.30
2022-10-05T02:47:38.794Z,1.00
2022-10-05T02:50:05.381Z,0.90
2022-10-05T02:52:31.853Z,1.20
2022-10-05T02:54:58.374Z,1.00
2022-10-05T02:57:24.934Z,0.80
2022-10-05T02:59:51.465Z,1.27
2022-10-05T03:02:17.977Z,1.37
2022-10-05T03:04:44.558Z,1.20
2022-10-05T03:07:11.085Z,1.63
2022-10-05T03:09:37.602Z,1.10
2022-10-05T03:12:04.134Z,0.93
2022-10-05T03:14:30.686Z,1.00
2022-10-05T03:16:57.196Z,1.00
2022-10-05T03:19:23.682Z,0.80
2022-10-05T03:21:50.193Z,0.97
2022-10-05T03:24:16.718Z,1.40
2022-10-05T03:26:43.319Z,1.20
2022-10-05T03:29:10.015Z,1.10
2022-10-05T03:31:36.630Z,1.10
2022-10-05T03:34:03.273Z,1.10
2022-10-05T03:36:29.840Z,1.40
2022-10-05T03:38:56.380Z,1.20
2022-10-05T03:41:23.101Z,1.23
2022-10-05T03:43:49.678Z,1.20
2022-10-05T03:46:16.202Z,1.00
2022-10-05T03:48:42.794Z,1.00
2022-10-05T03:51:09.281Z,1.10
2022-10-05T03:53:35.751Z,1.20
2022-10-05T03:56:03.419Z,0.87
2022-10-05T03:58:29.990Z,0.83
2022-10-05T04:00:56.457Z,1.10
2022-10-05T04:03:23.027Z,0.90
2022-10-05T04:05:49.539Z,0.97
2022-10-05T04:08:16.070Z,1.23
2022-10-05T04:10:42.716Z,1.00
2022-10-05T04:13:09.302Z,1.10
2022-10-05T04:15:35.852Z,1.33
2022-10-05T04:18:02.362Z,1.30
2022-10-05T04:20:28.869Z,1.10
2022-10-05T04:22:55.411Z,1.70
2022-10-05T04:25:21.967Z,1.13
2022-10-05T04:27:48.445Z,0.90
2022-10-05T04:30:15.002Z,1.20
2022-10-05T04:32:41.515Z,1.00
2022-10-05T04:35:08.028Z,1.47
2022-10-05T04:37:34.673Z,1.20
2022-10-05T04:40:01.448Z,1.00
2022-10-05T04:42:27.956Z,1.80
2022-10-05T04:44:58.980Z,1.50
2022-10-05T04:47:26.830Z,1.20
2022-10-05T04:49:53.319Z,1.13
2022-10-05T04:52:19.835Z,1.17
2022-10-05T04:54:46.406Z,1.30
2022-10-05T04:57:12.963Z,1.17
2022-10-05T04:59:39.483Z,1.20
2022-10-05T05:02:06.038Z,1.30
2022-10-05T05:04:32.579Z,1.80
2022-10-05T05:06:59.087Z,6.13
2022-10-05T05:09:25.597Z,6.53
2022-10-05T05:11:52.266Z,5.17
2022-10-05T05:14:19.005Z,1.47
2022-10-05T05:16:45.741Z,1.30
2022-10-05T05:19:12.444Z,0.97
2022-10-05T05:21:38.954Z,1.40
2022-10-05T05:24:05.426Z,1.80
2022-10-05T05:26:34.509Z,1.80
2022-10-05T05:29:04.687Z,2.77
2022-10-05T05:31:31.277Z,1.60
2022-10-05T05:33:57.818Z,1.70
2022-10-05T05:36:24.341Z,1.60
2022-10-05T05:38:50.825Z,2.20
2022-10-05T05:41:17.369Z,2.00
2022-10-05T05:43:43.907Z,2.30
2022-10-05T05:46:10.501Z,1.80
2022-10-05T05:48:37.097Z,1.70
2022-10-05T05:51:03.622Z,1.50
2022-10-05T05:53:30.215Z,2.87
2022-10-05T05:55:56.768Z,3.53
2022-10-05T05:58:23.287Z,3.03
2022-10-05T06:00:50.035Z,3.93
2022-10-05T06:03:16.819Z,2.90
2022-10-05T06:05:43.403Z,2.50
2022-10-05T06:08:09.958Z,2.67
2022-10-05T06:10:36.480Z,3.00
2022-10-05T06:13:03.039Z,2.87
2022-10-05T06:15:29.564Z,2.70
2022-10-05T06:17:56.081Z,2.93
2022-10-05T06:20:22.697Z,2.77
2022-10-05T06:22:49.216Z,2.40
2022-10-05T06:25:15.786Z,2.30
2022-10-05T06:27:42.364Z,2.00
2022-10-05T06:30:08.911Z,2.13
2022-10-05T06:32:35.469Z,2.07
2022-10-05T06:35:01.987Z,1.87
2022-10-05T06:37:28.514Z,2.00
2022-10-05T06:40:00.085Z,2.50
2022-10-05T06:42:27.549Z,3.57
2022-10-05T06:44:54.106Z,3.23
2022-10-05T06:47:20.657Z,3.10
2022-10-05T06:49:47.169Z,3.17
2022-10-05T06:52:13.817Z,3.00
2022-10-05T06:54:40.382Z,2.27
2022-10-05T06:57:06.900Z,2.00
2022-10-05T06:59:33.410Z,1.80
2022-10-05T07:01:59.959Z,2.07
2022-10-05T07:04:26.478Z,2.73
2022-10-05T07:06:52.985Z,2.13
2022-10-05T07:09:19.557Z,2.30
2022-10-05T07:11:49.066Z,2.00
2022-10-05T07:14:17.944Z,2.00
2022-10-05T07:16:44.557Z,1.97
2022-10-05T07:19:11.297Z,1.97
2022-10-05T07:21:37.772Z,2.80
2022-10-05T07:24:07.337Z,2.70
2022-10-05T07:26:33.921Z,2.60
2022-10-05T07:29:00.396Z,2.90
2022-10-05T07:31:26.995Z,2.53
2022-10-05T07:33:53.562Z,2.10
2022-10-05T07:36:20.114Z,2.50
2022-10-05T07:38:46.719Z,2.40
2022-10-05T07:41:13.271Z,2.10
2022-10-05T07:44:00.922Z,1.97
2022-10-05T07:46:26.589Z,2.37
2022-10-05T07:48:53.173Z,2.90
2022-10-05T07:51:19.643Z,2.63
2022-10-05T07:53:46.159Z,2.90
2022-10-05T07:56:12.699Z,2.83
2022-10-05T07:58:39.306Z,3.17
2022-10-05T08:01:05.927Z,3.20
2022-10-05T08:03:32.436Z,3.33
2022-10-05T08:05:58.992Z,2.60
2022-10-05T08:08:25.545Z,2.80
2022-10-05T08:10:52.072Z,3.10
2022-10-05T08:13:18.585Z,2.43
2022-10-05T08:15:45.227Z,2.83
2022-10-05T08:18:11.863Z,2.90
2022-10-05T08:20:38.345Z,3.10
2022-10-05T08:23:04.817Z,2.47
2022-10-05T08:25:31.329Z,2.20
2022-10-05T08:27:57.905Z,2.50
2022-10-05T08:30:24.476Z,2.17
2022-10-05T08:32:51.118Z,2.30
2022-10-05T08:35:17.672Z,2.17
2022-10-05T08:37:44.185Z,2.13
2022-10-05T08:40:10.735Z,2.30
2022-10-05T08:42:37.217Z,2.17
2022-10-05T08:45:03.724Z,2.13
2022-10-05T08:47:30.281Z,2.37
2022-10-05T08:49:56.815Z,2.13
2022-10-05T08:52:23.311Z,2.40
2022-10-05T08:54:49.820Z,2.03
2022-10-05T08:57:16.404Z,1.90
2022-10-05T08:59:42.997Z,2.27
2022-10-05T09:02:09.574Z,2.40
2022-10-05T09:04:36.105Z,2.27
2022-10-05T09:07:02.617Z,2.30
2022-10-05T09:09:29.177Z,2.47
2022-10-05T09:11:55.649Z,2.10
2022-10-05T09:14:22.163Z,2.17
2022-10-05T09:16:51.206Z,2.20
2022-10-05T09:19:17.699Z,2.47
2022-10-05T09:21:44.758Z,1.80
2022-10-05T09:24:11.550Z,2.03
2022-10-05T09:26:38.067Z,1.77
2022-10-05T09:29:04.615Z,2.30
2022-10-05T09:31:31.175Z,2.17
2022-10-05T09:33:57.742Z,1.90
2022-10-05T09:36:24.340Z,2.50
2022-10-05T09:38:50.912Z,1.60
2022-10-05T09:41:17.403Z,1.93
2022-10-05T09:43:43.908Z,1.90
2022-10-05T09:46:10.639Z,1.70
2022-10-05T09:48:37.225Z,1.80
2022-10-05T09:51:03.722Z,1.90
2022-10-05T09:53:30.206Z,1.77
2022-10-05T09:55:57.784Z,1.57
2022-10-05T09:58:24.266Z,1.70
2022-10-05T10:00:58.741Z,1.70
2022-10-05T10:03:35.902Z,1.50
2022-10-05T10:06:02.425Z,1.47
2022-10-05T10:08:29.045Z,1.30
2022-10-05T10:10:55.569Z,1.50
2022-10-05T10:13:22.072Z,1.60
2022-10-05T10:15:48.613Z,1.13
2022-10-05T10:18:15.166Z,1.37
2022-10-05T10:20:41.636Z,1.40
2022-10-05T10:23:08.166Z,1.30
2022-10-05T10:25:34.672Z,1.30
2022-10-05T10:28:01.256Z,1.40
2022-10-05T10:30:28.423Z,1.03
2022-10-05T10:32:55.453Z,1.10
2022-10-05T10:35:21.992Z,1.10
2022-10-05T10:37:48.513Z,1.10
2022-10-05T10:40:15.037Z,1.10
2022-10-05T10:42:41.510Z,1.07
2022-10-05T10:45:08.057Z,0.90
2022-10-05T10:47:34.562Z,1.30
2022-10-05T10:50:01.054Z,1.00
2022-10-05T10:52:27.541Z,0.90
2022-10-05T10:54:54.107Z,1.17
2022-10-05T10:57:20.595Z,1.00
2022-10-05T10:59:47.150Z,1.00
2022-10-05T11:02:13.756Z,0.73
2022-10-05T11:04:40.328Z,1.10
2022-10-05T11:07:06.876Z,0.90
2022-10-05T11:09:33.387Z,0.80
2022-10-05T11:11:59.934Z,0.73
2022-10-05T11:14:26.490Z,0.83
2022-10-05T11:16:52.972Z,0.90
2022-10-05T11:19:19.482Z,0.63
2022-10-05T11:21:46.019Z,0.60
2022-10-05T11:24:12.564Z,0.90
2022-10-05T11:26:39.170Z,0.80
2022-10-05T11:29:05.730Z,0.90
2022-10-05T11:31:32.280Z,0.70
2022-10-05T11:33:58.836Z,1.00
2022-10-05T11:36:25.381Z,0.90
2022-10-05T11:38:51.866Z,1.00
2022-10-05T11:41:18.369Z,0.87
2022-10-05T11:43:44.863Z,1.00
2022-10-05T11:46:11.433Z,1.60
2022-10-05T11:48:37.973Z,0.93
2022-10-05T11:51:04.461Z,0.90
2022-10-05T11:53:31.000Z,1.10
2022-10-05T11:55:57.493Z,1.00
2022-10-05T11:58:23.994Z,1.07
2022-10-05T12:00:50.487Z,1.00
2022-10-05T12:03:17.112Z,1.20
2022-10-05T12:05:43.691Z,1.27
2022-10-05T12:08:10.222Z,0.90
2022-10-05T12:10:36.723Z,1.10
2022-10-05T12:13:03.252Z,1.00
2022-10-05T12:15:29.725Z,1.17
2022-10-05T12:17:56.213Z,1.20
2022-10-05T12:20:22.700Z,1.23
2022-10-05T12:22:49.269Z,1.20
2022-10-05T12:25:15.762Z,1.30
2022-10-05T12:27:42.237Z,1.10
2022-10-05T12:30:08.738Z,1.37
2022-10-05T12:32:37.350Z,1.47
2022-10-05T12:35:03.891Z,1.40
2022-10-05T12:37:30.361Z,1.30
2022-10-05T12:39:56.867Z,1.20
2022-10-05T12:42:23.407Z,1.03
2022-10-05T12:44:49.915Z,1.27
2022-10-05T12:47:16.393Z,1.20
2022-10-05T12:49:42.912Z,1.20
2022-10-05T12:52:09.462Z,1.40
2022-10-05T12:54:35.939Z,1.13
2022-10-05T12:57:02.397Z,1.20
2022-10-05T12:59:28.939Z,1.20
2022-10-05T13:01:55.467Z,1.10
2022-10-05T13:04:21.974Z,1.20
2022-10-05T13:06:48.490Z,1.07
2022-10-05T13:09:15.010Z,1.27
2022-10-05T13:11:41.494Z,1.10
2022-10-05T13:14:08.008Z,1.00
2022-10-05T13:16:34.572Z,0.97
2022-10-05T13:19:01.122Z,1.13
2022-10-05T13:21:28.736Z,1.10
2022-10-05T13:23:57.557Z,1.00
2022-10-05T13:26:24.277Z,1.00
2022-10-05T13:28:51.008Z,1.00
2022-10-05T13:31:17.521Z,0.80
2022-10-05T13:33:44.030Z,0.90
2022-10-05T13:36:10.706Z,1.07
2022-10-05T13:38:37.327Z,1.07
2022-10-05T13:41:03.806Z,1.30
2022-10-05T13:43:30.308Z,0.97
2022-10-05T13:45:57.334Z,1.00
2022-10-05T13:48:23.933Z,0.93
2022-10-05T13:50:50.507Z,1.00
2022-10-05T13:53:16.995Z,0.80
2022-10-05T13:55:43.563Z,0.93
2022-10-05T13:58:10.057Z,1.00
2022-10-05T14:00:36.631Z,0.83
2022-10-05T14:03:03.200Z,1.13
2022-10-05T14:05:29.717Z,0.90
2022-10-05T14:07:56.317Z,1.00
2022-10-05T14:10:22.801Z,1.00
2022-10-05T14:12:49.349Z,1.10
2022-10-05T14:15:15.856Z,0.90
2022-10-05T14:17:42.324Z,1.03
2022-10-05T14:20:08.804Z,0.90
2022-10-05T14:22:35.357Z,1.17
2022-10-05T14:25:01.842Z,1.13
2022-10-05T14:27:28.373Z,1.00
2022-10-05T14:29:54.851Z,0.93
2022-10-05T14:32:21.522Z,1.03
2022-10-05T14:34:48.078Z,1.00
2022-10-05T14:37:14.562Z,1.10
2022-10-05T14:39:41.077Z,1.20
2022-10-05T14:42:07.600Z,1.30
2022-10-05T14:44:34.099Z,1.40
2022-10-05T14:47:00.619Z,1.30
2022-10-05T14:49:27.115Z,0.90
2022-10-05T14:51:53.603Z,0.87
2022-10-05T14:54:20.113Z,1.00
2022-10-05T14:56:46.590Z,0.80
2022-10-05T14:59:13.071Z,1.30
2022-10-05T15:01:39.696Z,1.30
2022-10-05T15:04:06.205Z,1.60
2022-10-05T15:06:32.677Z,1.57
2022-10-05T15:08:59.221Z,1.40
2022-10-05T15:11:25.711Z,1.30
2022-10-05T15:13:52.225Z,1.00
2022-10-05T15:16:19.320Z,1.20
2022-10-05T15:18:46.197Z,1.40
2022-10-05T15:21:12.677Z,0.90
2022-10-05T15:23:39.223Z,1.20
2022-10-05T15:26:05.698Z,1.30
2022-10-05T15:28:32.229Z,1.20
2022-10-05T15:30:58.821Z,1.30
2022-10-05T15:33:25.381Z,1.43
2022-10-05T15:35:51.871Z,1.70
2022-10-05T15:38:18.349Z,1.27
2022-10-05T15:40:44.854Z,1.30
2022-10-05T15:43:11.345Z,1.77
2022-10-05T15:45:37.985Z,1.93
2022-10-05T15:48:04.514Z,1.80
2022-10-05T15:50:30.987Z,2.33
2022-10-05T15:58:45.957Z,2.57
2022-10-05T16:01:12.517Z,1.63
2022-10-05T16:03:39.075Z,1.30
2022-10-05T16:06:05.583Z,1.40
2022-10-05T16:08:32.134Z,1.37
2022-10-05T16:10:58.614Z,1.40
2022-10-05T16:13:25.376Z,1.40
2022-10-05T16:15:51.950Z,1.50
2022-10-05T16:18:18.494Z,1.20
2022-10-05T16:20:44.982Z,1.50
2022-10-05T16:23:11.469Z,1.40
2022-10-05T16:25:37.958Z,1.30
2022-10-05T16:28:05.683Z,1.60
2022-10-05T16:30:32.532Z,1.73
2022-10-05T16:32:59.049Z,2.60
2022-10-05T16:35:25.575Z,3.80
2022-10-05T16:37:52.051Z,2.80
2022-10-05T16:40:18.555Z,5.47
2022-10-05T16:42:45.061Z,4.00
2022-10-05T16:45:11.564Z,2.63
2022-10-05T16:47:38.051Z,2.40
2022-10-05T16:50:04.599Z,2.20
2022-10-05T16:52:31.229Z,2.70
2022-10-05T16:54:57.708Z,3.30
2022-10-05T16:57:24.230Z,3.37
2022-10-05T16:59:50.730Z,3.50
2022-10-05T17:02:17.326Z,3.90
2022-10-05T17:04:43.794Z,3.80
2022-10-05T17:07:10.275Z,3.70
2022-10-05T17:09:36.798Z,3.60
2022-10-05T17:12:03.279Z,3.23
2022-10-05T17:14:29.768Z,3.37
2022-10-05T17:16:56.329Z,3.23
2022-10-05T17:19:22.804Z,3.60
2022-10-05T17:21:49.317Z,9.00
2022-10-05T17:24:15.860Z,11.57
2022-10-05T17:26:42.350Z,14.63
2022-10-05T17:29:08.850Z,14.10
2022-10-05T17:31:35.370Z,13.33
2022-10-05T17:34:01.846Z,11.33
2022-10-05T17:36:28.326Z,9.73
2022-10-05T17:38:54.821Z,6.60
2022-10-05T17:41:21.304Z,4.13
2022-10-05T17:43:47.875Z,5.30
2022-10-05T17:46:14.394Z,4.37
2022-10-05T17:48:40.957Z,2.80
2022-10-05T17:51:07.444Z,2.80
2022-10-05T17:53:33.937Z,3.33
2022-10-05T17:56:00.409Z,3.37
2022-10-05T17:58:27.188Z,4.10
2022-10-05T18:00:54.078Z,3.30
2022-10-05T18:03:20.558Z,3.13
2022-10-05T18:05:47.076Z,3.10
2022-10-05T18:08:13.557Z,3.40
2022-10-05T18:10:41.293Z,2.80
2022-10-05T18:13:07.964Z,2.97
2022-10-05T18:15:34.488Z,2.40
2022-10-05T18:18:01.008Z,2.87
2022-10-05T18:20:27.517Z,2.60
2022-10-05T18:22:54.000Z,2.60
2022-10-05T18:25:20.605Z,2.90
2022-10-05T18:27:47.084Z,2.60
2022-10-05T18:30:13.616Z,2.70
2022-10-05T18:32:40.137Z,2.60
2022-10-05T18:35:06.619Z,2.77
2022-10-05T18:37:33.092Z,3.57
2022-10-05T18:39:59.614Z,4.40
2022-10-05T18:42:26.194Z,4.57
2022-10-05T18:44:52.677Z,4.03
2022-10-05T18:47:19.258Z,3.70
2022-10-05T18:49:45.737Z,4.30
2022-10-05T18:52:12.257Z,4.37
2022-10-05T18:54:38.769Z,3.83
2022-10-05T18:57:05.290Z,4.10
2022-10-05T18:59:31.766Z,4.83
2022-10-05T19:01:58.395Z,4.93
2022-10-05T19:04:24.980Z,4.77
2022-10-05T19:06:51.503Z,5.00
2022-10-05T19:09:18.109Z,4.60
2022-10-05T19:11:44.609Z,4.90
2022-10-05T19:14:11.188Z,4.00
2022-10-05T19:16:37.707Z,3.60
2022-10-05T19:19:04.180Z,3.60
2022-10-05T19:21:30.692Z,3.40
2022-10-05T19:23:57.165Z,3.77
2022-10-05T19:26:23.685Z,3.53
2022-10-05T19:28:50.277Z,3.63
2022-10-05T19:31:16.872Z,3.20
2022-10-05T19:33:43.406Z,3.07
2022-10-05T19:36:09.914Z,3.40
2022-10-05T19:38:36.426Z,3.30
2022-10-05T19:41:02.916Z,2.93
2022-10-05T19:43:29.630Z,3.20
2022-10-05T19:45:56.390Z,3.33
2022-10-05T19:48:22.858Z,3.13
2022-10-05T19:50:49.400Z,2.97
2022-10-05T19:53:15.885Z,3.00
2022-10-05T19:55:42.356Z,3.50
2022-10-05T19:58:08.849Z,2.93
2022-10-05T20:00:35.393Z,3.20
2022-10-05T20:03:01.944Z,3.13
2022-10-05T20:05:28.438Z,3.17
2022-10-05T20:07:54.965Z,3.17
2022-10-05T20:10:21.477Z,3.00
2022-10-05T20:12:47.960Z,2.80
2022-10-05T20:15:14.445Z,2.67
2022-10-05T20:17:40.969Z,3.07
2022-10-05T20:20:08.583Z,3.30
2022-10-05T20:22:35.081Z,3.10
2022-10-05T20:25:01.566Z,2.83
2022-10-05T20:27:28.058Z,2.77
2022-10-05T20:29:54.555Z,2.97
2022-10-05T20:32:22.342Z,2.70
2022-10-05T20:34:48.810Z,2.97
2022-10-05T20:37:15.319Z,3.30
2022-10-05T20:39:41.873Z,3.07
2022-10-05T20:42:08.341Z,2.90
2022-10-05T20:44:34.869Z,3.30
2022-10-05T20:47:01.522Z,3.10
2022-10-05T20:49:28.071Z,3.37
2022-10-05T20:51:54.568Z,2.90
2022-10-05T20:54:21.129Z,3.20
2022-10-05T20:56:47.618Z,3.27
2022-10-05T20:59:14.100Z,3.13
2022-10-05T21:01:40.679Z,3.20
2022-10-05T21:04:07.161Z,2.97
2022-10-05T21:06:33.702Z,3.07
2022-10-05T21:09:00.244Z,2.87
2022-10-05T21:11:26.777Z,2.90
2022-10-05T21:13:53.254Z,3.20
2022-10-05T21:16:19.785Z,3.40
2022-10-05T21:18:46.325Z,3.27
2022-10-05T21:21:12.805Z,2.97
2022-10-05T21:23:39.287Z,4.23
2022-10-05T21:26:05.838Z,3.10
2022-10-05T21:28:32.664Z,3.03
2022-10-05T21:30:59.345Z,2.70
2022-10-05T21:33:26.262Z,3.13
2022-10-05T21:35:53.346Z,2.57
2022-10-05T21:38:19.854Z,2.50
2022-10-05T21:40:46.357Z,2.50
2022-10-05T21:43:12.883Z,2.57
2022-10-05T21:45:39.462Z,3.00
2022-10-05T21:48:06.054Z,2.80
2022-10-05T21:50:32.585Z,2.63
2022-10-05T21:52:59.057Z,2.70
2022-10-05T21:55:25.635Z,2.73
2022-10-05T21:57:52.116Z,3.00
2022-10-05T22:00:18.650Z,3.10
2022-10-05T22:02:45.197Z,2.80
2022-10-05T22:05:11.741Z,2.47
2022-10-05T22:07:38.263Z,2.73
2022-10-05T22:10:04.776Z,2.33
2022-10-05T22:12:31.282Z,2.00
2022-10-05T22:14:57.805Z,2.40
2022-10-05T22:17:24.307Z,2.07
2022-10-05T22:19:50.776Z,1.63
2022-10-05T22:22:17.295Z,1.63
2022-10-05T22:24:43.847Z,1.87
2022-10-05T22:27:10.363Z,1.87
2022-10-05T22:29:36.928Z,2.00
2022-10-05T22:32:03.450Z,2.00
2022-10-05T22:34:30.059Z,2.30
2022-10-05T22:36:56.596Z,2.20
2022-10-05T22:39:23.125Z,2.10
2022-10-05T22:41:49.650Z,1.73
2022-10-05T22:44:16.150Z,2.07
2022-10-05T22:46:42.653Z,2.40
2022-10-05T22:49:09.169Z,2.00
2022-10-05T22:51:35.642Z,2.30
2022-10-05T22:54:02.202Z,1.80
2022-10-05T22:56:28.718Z,1.97
2022-10-05T22:58:55.288Z,2.37
2022-10-05T23:01:21.847Z,2.50
2022-10-05T23:03:48.377Z,2.70
2022-10-05T23:06:14.858Z,1.87
2022-10-05T23:08:41.340Z,1.40
2022-10-05T23:11:07.853Z,1.47
2022-10-05T23:13:34.368Z,1.90
2022-10-05T23:16:00.893Z,1.50
2022-10-05T23:18:27.683Z,1.70
2022-10-05T23:20:54.441Z,1.40
2022-10-05T23:23:20.918Z,1.53
2022-10-05T23:25:47.481Z,1.37
2022-10-05T23:28:14.130Z,1.83
2022-10-05T23:30:40.788Z,1.73
2022-10-05T23:33:07.330Z,1.40
2022-10-05T23:35:33.888Z,1.80
2022-10-05T23:38:00.384Z,1.47
2022-10-05T23:40:26.878Z,1.63
2022-10-05T23:42:53.466Z,1.40
2022-10-05T23:45:19.946Z,1.33
2022-10-05T23:47:46.470Z,1.30
2022-10-05T23:50:12.977Z,1.40
2022-10-05T23:52:39.485Z,1.40
2022-10-05T23:55:06.008Z,1.40
2022-10-05T23:57:32.518Z,1.53
2022-10-05T23:59:59.094Z,1.70
